地図

経路データ

SID SEASON NUMBER BASIN SUBBASIN NAME ISO_TIME NATURE LAT LON WMO_WIND WMO_PRES WMO_AGENCY TRACK_TYPE DIST2LAND LANDFALL IFLAG USA_AGENCY USA_ATCF_ID USA_LAT USA_LON USA_RECORD USA_STATUS USA_WIND USA_PRES USA_SSHS USA_R34_NE USA_R34_SE USA_R34_SW USA_R34_NW USA_R50_NE USA_R50_SE USA_R50_SW USA_R50_NW USA_R64_NE USA_R64_SE USA_R64_SW USA_R64_NW USA_POCI USA_ROCI USA_RMW USA_EYE TOKYO_LAT TOKYO_LON TOKYO_GRADE TOKYO_WIND TOKYO_PRES TOKYO_R50_DIR TOKYO_R50_LONG TOKYO_R50_SHORT TOKYO_R30_DIR TOKYO_R30_LONG TOKYO_R30_SHORT TOKYO_LAND CMA_LAT CMA_LON CMA_CAT CMA_WIND CMA_PRES HKO_LAT HKO_LON HKO_CAT HKO_WIND HKO_PRES NEWDELHI_LAT NEWDELHI_LON NEWDELHI_GRADE NEWDELHI_WIND NEWDELHI_PRES NEWDELHI_CI NEWDELHI_DP NEWDELHI_POCI REUNION_LAT REUNION_LON REUNION_TYPE REUNION_WIND REUNION_PRES REUNION_TNUM REUNION_CI REUNION_RMW REUNION_R34_NE REUNION_R34_SE REUNION_R34_SW REUNION_R34_NW REUNION_R50_NE REUNION_R50_SE REUNION_R50_SW REUNION_R50_NW REUNION_R64_NE REUNION_R64_SE REUNION_R64_SW REUNION_R64_NW BOM_LAT BOM_LON BOM_TYPE BOM_WIND BOM_PRES BOM_TNUM BOM_CI BOM_RMW BOM_R34_NE BOM_R34_SE BOM_R34_SW BOM_R34_NW BOM_R50_NE BOM_R50_SE BOM_R50_SW BOM_R50_NW BOM_R64_NE BOM_R64_SE BOM_R64_SW BOM_R64_NW BOM_ROCI BOM_POCI BOM_EYE BOM_POS_METHOD BOM_PRES_METHOD NADI_LAT NADI_LON NADI_CAT NADI_WIND NADI_PRES WELLINGTON_LAT WELLINGTON_LON WELLINGTON_WIND WELLINGTON_PRES DS824_LAT DS824_LON DS824_STAGE DS824_WIND DS824_PRES TD9636_LAT TD9636_LON TD9636_STAGE TD9636_WIND TD9636_PRES TD9635_LAT TD9635_LON TD9635_WIND TD9635_PRES TD9635_ROCI NEUMANN_LAT NEUMANN_LON NEUMANN_CLASS NEUMANN_WIND NEUMANN_PRES MLC_LAT MLC_LON MLC_CLASS MLC_WIND MLC_PRES USA_GUST BOM_GUST BOM_GUST_PER REUNION_GUST REUNION_GUST_PER USA_SEAHGT USA_SEARAD_NE USA_SEARAD_SE USA_SEARAD_SW USA_SEARAD_NW STORM_SPEED STORM_DIR
1943305N12121 1943 78 WP MM NOT_NAMED 1943-11-01 10:00:00 NR 12.2000 121.300 main 10 0 __________O___ -1 12.2000 121.300 2 7 273
1943305N12121 1943 78 WP MM NOT_NAMED 1943-11-01 12:00:00 NR 12.2137 121.057 main 0 10 __________P___ -1 12.2137 121.057 2 7 273
1943305N12121 1943 78 WP MM NOT_NAMED 1943-11-01 15:00:00 NR 12.2352 120.689 main 39 39 __________P___ -1 12.2352 120.689 2 7 274
1943305N12121 1943 78 WP MM NOT_NAMED 1943-11-01 18:00:00 NR 12.2595 120.315 main 70 70 __________P___ -1 12.2595 120.315 2 7 274
1943305N12121 1943 78 WP MM NOT_NAMED 1943-11-01 21:00:00 NR 12.2888 119.931 main 107 107 __________P___ -1 12.2888 119.931 2 8 275
1943305N12121 1943 78 WP MM NOT_NAMED 1943-11-01 22:00:00 NR 12.3000 119.800 main 114 111 __________O___ -1 12.3000 119.800 2 8 275
1943305N12121 1943 78 WP MM NOT_NAMED 1943-11-02 00:00:00 NR 12.3249 119.533 main 111 111 __________P___ -1 12.3249 119.533 2 8 276
1943305N12121 1943 78 WP MM NOT_NAMED 1943-11-02 03:00:00 NR 12.3685 119.121 main 130 130 __________P___ -1 12.3685 119.121 2 8 277
1943305N12121 1943 78 WP MM NOT_NAMED 1943-11-02 06:00:00 NR 12.4197 118.693 main 150 150 __________P___ -1 12.4197 118.693 2 9 277
1943305N12121 1943 78 WP MM NOT_NAMED 1943-11-02 09:00:00 NR 12.4787 118.251 main 187 195 __________P___ -1 12.4787 118.251 2 9 278
1943305N12121 1943 78 WP MM NOT_NAMED 1943-11-02 10:00:00 NR 12.5000 118.100 main 203 203 __________O___ -1 12.5000 118.100 2 9 278
1943305N12121 1943 78 WP MM NOT_NAMED 1943-11-02 12:00:00 NR 12.5443 117.790 main 227 227 __________P___ -1 12.5443 117.790 2 9 279
1943305N12121 1943 78 WP MM NOT_NAMED 1943-11-02 15:00:00 NR 12.6170 117.311 main 277 277 __________P___ -1 12.6170 117.311 2 10 279
1943305N12121 1943 78 WP MM NOT_NAMED 1943-11-02 18:00:00 NR 12.6945 116.828 main 329 329 __________P___ -1 12.6945 116.828 2 9 280
1943305N12121 1943 78 WP MM NOT_NAMED 1943-11-02 21:00:00 NR 12.7737 116.354 main 372 382 __________P___ -1 12.7737 116.354 2 9 280
1943305N12121 1943 78 WP MM NOT_NAMED 1943-11-02 22:00:00 NR 12.8000 116.200 main 391 391 __________O___ -1 12.8000 116.200 2 9 281
1943305N12121 1943 78 WP MM NOT_NAMED 1943-11-03 00:00:00 NR 12.8576 115.905 main 425 425 __________P___ -1 12.8576 115.905 2 9 282
1943305N12121 1943 78 WP MM NOT_NAMED 1943-11-03 03:00:00 NR 12.9444 115.476 main 465 465 __________P___ -1 12.9444 115.476 2 8 281
1943305N12121 1943 78 WP MM NOT_NAMED 1943-11-03 06:00:00 NR 13.0233 115.056 main 509 519 __________P___ -1 13.0233 115.056 2 8 280
1943305N12121 1943 78 WP MM NOT_NAMED 1943-11-03 09:00:00 NR 13.0849 114.639 main 553 542 __________P___ -1 13.0849 114.639 2 8 278
1943305N12121 1943 78 WP MM NOT_NAMED 1943-11-03 10:00:00 NR 13.1000 114.500 main 542 510 __________O___ -1 13.1000 114.500 2 9 274
1943305N12121 1943 78 WP MM NOT_NAMED 1943-11-03 12:00:00 NR 13.1173 114.185 main 510 455 __________P___ -1 13.1173 114.185 2 9 272
1943305N12121 1943 78 WP MM NOT_NAMED 1943-11-03 15:00:00 NR 13.1243 113.712 main 455 412 __________P___ -1 13.1243 113.712 2 9 270
1943305N12121 1943 78 WP MM NOT_NAMED 1943-11-03 18:00:00 NR 13.1166 113.272 main 412 369 __________P___ -1 13.1166 113.272 2 8 269
1943305N12121 1943 78 WP MM NOT_NAMED 1943-11-03 21:00:00 NR 13.1038 112.901 main 369 358 __________P___ -1 13.1038 112.901 2 7 268
1943305N12121 1943 78 WP MM NOT_NAMED 1943-11-03 22:00:00 NR 13.1000 112.800 main 358 347 __________O___ -1 13.1000 112.800 2 5 269
1943305N12121 1943 78 WP MM NOT_NAMED 1943-11-04 00:00:00 NR 13.0996 112.653 main 347 326 __________P___ -1 13.0996 112.653 2 3 270
1943305N12121 1943 78 WP MM NOT_NAMED 1943-11-04 03:00:00 NR 13.0994 112.509 main 326 315 __________P___ -1 13.0994 112.509 2 2 270
1943305N12121 1943 78 WP MM NOT_NAMED 1943-11-04 06:00:00 NR 13.0996 112.417 main 315 304 __________P___ -1 13.0996 112.417 2 2 270
1943305N12121 1943 78 WP MM NOT_NAMED 1943-11-04 09:00:00 NR 13.0999 112.334 main 304 304 __________P___ -1 13.0999 112.334 2 2 270
1943305N12121 1943 78 WP MM NOT_NAMED 1943-11-04 10:00:00 NR 13.1000 112.300 main 304 293 __________O___ -1 13.1000 112.300 2 2 270
1943305N12121 1943 78 WP MM NOT_NAMED 1943-11-04 12:00:00 NR 13.1002 112.217 main 293 282 __________P___ -1 13.1002 112.217 2 3 270
1943305N12121 1943 78 WP MM NOT_NAMED 1943-11-04 15:00:00 NR 13.1004 112.060 main 282 261 __________P___ -1 13.1004 112.060 2 3 270
1943305N12121 1943 78 WP MM NOT_NAMED 1943-11-04 18:00:00 NR 13.1003 111.873 main 261 239 __________P___ -1 13.1003 111.873 2 4 270
1943305N12121 1943 78 WP MM NOT_NAMED 1943-11-04 21:00:00 NR 13.1001 111.669 main 239 228 __________P___ -1 13.1001 111.669 2 4 270
1943305N12121 1943 78 WP MM NOT_NAMED 1943-11-04 22:00:00 NR 13.1000 111.600 main 228 __________O___ -1 13.1000 111.600 2 4 270

デジタル台風データ・検索

IBTrACS Databaseについて

本データベースは、米国NOAAが公開する1842年以降の世界の熱帯低気圧のベストトラックデータアーカイブInternational Best Track Archive for Climate Stewardship (IBTrACS)を、ウェブで閲覧しやすい形式に変換したものです。

最終更新日:2021-12-06